Tocito, New Mexico
Current Conditions -  °F | °C
As of 6:53 AM on Tuesday 21 Oct 2014 (Local Time) from KFMN Reporting Station
Clear Clear  
Wind Chill: 49°   Ceiling: Unl
Heat Index: 49°   Visibility: 10mi
Dew Point: 43°   Wind: 3mph
Humidity: 80%   Direction: 100°E
Pressure: 30.13"   Gusts: NA
Location:  36.3945°N, 108.769°W
Report Text: KFMN 211253Z 10003KT 10SM CLR 09/06 A3013 RMK AO2 SLP173 T00940061
Loading
Personal Weather Stations






























Interactive Weather Map
Tropical Storm Tracking
New forecast layout! Learn more

10-Day Weather Forecast

Advertisements
Track Severe Weather on mobile